Time;durP1;ratioP1;P1;durP2;ratioP2;P2;SDS_P1;SDS_P2;PMS_P1;PMS_P2;Temp;Humidity;BMP_temperature;BMP_pressure;BME280_temperature;BME280_humidity;BME280_pressure;Samples;Min_cycle;Max_cycle;Signal;HPM_P1;HPM_P2
2021/01/13 00:00:21;;;;;;;1.63;1.08;;;;;;;;;;5018798;28;20117;-81
2021/01/13 00:02:47;;;;;;;2.35;0.32;;;;;;;;;;5002072;28;20146;-81
2021/01/13 00:05:17;;;;;;;0.63;0.63;;;;;;;;;;5000318;28;20030;-81
2021/01/13 00:07:43;;;;;;;0.68;0.45;;;;;;;;;;5013149;28;20038;-80
2021/01/13 00:10:10;;;;;;;0.40;0.40;;;6.50;91.50;;;;;;5002191;28;20430;-81
2021/01/13 00:12:37;;;;;;;0.68;0.50;;;6.70;90.50;;;;;;5021570;28;20108;-81
2021/01/13 00:15:07;;;;;;;1.23;0.63;;;6.70;90.40;;;;;;5003025;28;20101;-81
2021/01/13 00:17:33;;;;;;;0.65;0.57;;;;;;;;;;4998578;28;20498;-82
2021/01/13 00:19:59;;;;;;;0.95;0.60;;;;;;;;;;5003202;28;20084;-81
2021/01/13 00:22:25;;;;;;;0.68;0.60;;;;;;;;;;5009239;28;20030;-82
2021/01/13 00:24:52;;;;;;;1.38;0.60;;;7.00;98.50;;;;;;5010880;28;20048;-81
2021/01/13 00:27:21;;;;;;;0.43;0.43;;;;;;;;;;5009462;28;20113;-81
2021/01/13 00:29:51;;;;;;;0.73;0.73;;;6.80;90.50;;;;;;4997731;28;20027;-81
2021/01/13 00:32:17;;;;;;;0.75;0.57;;;;;;;;;;5008339;28;20024;-81
2021/01/13 00:34:43;;;;;;;0.68;0.60;;;;;;;;;;5000275;28;20072;-81
2021/01/13 00:37:10;;;;;;;0.55;0.55;;;7.00;90.00;;;;;;5012332;28;20033;-81
2021/01/13 00:39:37;;;;;;;0.93;0.40;;;;;;;;;;5009543;28;20657;-81
2021/01/13 00:42:03;;;;;;;4.47;2.28;;;;;;;;;;5005367;28;20026;-81
2021/01/13 00:44:29;;;;;;;2.63;1.15;;;;;;;;;;5012185;28;20498;-80
2021/01/13 00:46:55;;;;;;;11.73;3.35;;;;;;;;;;5022409;28;20072;-80
2021/01/13 00:49:21;;;;;;;12.05;3.47;;;;;;;;;;5000407;28;20060;-81
2021/01/13 00:51:47;;;;;;;6.88;2.72;;;;;;;;;;5003390;28;20018;-81
2021/01/13 00:54:13;;;;;;;2.47;1.27;;;;;;;;;;5012496;28;20022;-80
2021/01/13 00:56:43;;;;;;;0.95;0.85;;;7.00;90.20;;;;;;5006531;28;20038;-82
2021/01/13 00:59:13;;;;;;;3.35;0.70;;;7.10;90.30;;;;;;5003520;28;20034;-81
2021/01/13 01:01:40;;;;;;;0.30;0.30;;;7.00;87.50;;;;;;5002871;28;20124;-81
2021/01/13 01:04:06;;;;;;;0.30;0.30;;;;;;;;;;4998896;28;20022;-82
2021/01/13 01:06:32;;;;;;;0.43;0.38;;;;;;;;;;5012210;28;20032;-81
2021/01/13 01:08:58;;;;;;;0.40;0.40;;;;;;;;;;5006712;28;20031;-82
2021/01/13 01:11:31;;;;;;;0.45;0.45;;;7.20;90.30;;;;;;5000054;28;20018;-81
2021/01/13 01:13:57;;;;;;;0.35;0.30;;;;;;;;;;5011119;28;20393;-81
2021/01/13 01:16:32;;;;;;;0.68;0.50;;;7.20;90.10;;;;;;5008271;28;20041;-82
2021/01/13 01:18:59;;;;;;;0.60;0.43;;;7.30;89.40;;;;;;5011978;28;20555;-81
2021/01/13 01:21:25;;;;;;;0.93;0.55;;;;;;;;;;5008192;28;20464;-81
2021/01/13 01:23:51;;;;;;;0.75;0.40;;;;;;;;;;4998219;28;20150;-81
2021/01/13 01:26:17;;;;;;;0.63;0.35;;;;;;;;;;5010416;28;20022;-81
2021/01/13 01:28:43;;;;;;;1.33;0.40;;;;;;;;;;5001809;28;20490;-80
2021/01/13 01:31:09;;;;;;;0.70;0.57;;;;;;;;;;5002285;28;20440;-82
2021/01/13 01:33:35;;;;;;;0.30;0.30;;;;;;;;;;5003595;28;20109;-81
2021/01/13 01:36:01;;;;;;;0.85;0.55;;;;;;;;;;5011156;28;20077;-81
2021/01/13 01:38:28;;;;;;;1.42;0.52;;;;;;;;;;5014119;28;20022;-82
2021/01/13 01:40:54;;;;;;;0.80;0.70;;;;;;;;;;5013074;28;20033;-81
2021/01/13 01:43:20;;;;;;;0.40;0.40;;;;;;;;;;5014779;28;20046;-82
2021/01/13 01:45:46;;;;;;;1.05;0.55;;;;;;;;;;5014502;28;20026;-81
2021/01/13 01:48:18;;;;;;;1.40;0.68;;;;;;;;;;5015303;28;20046;-81
2021/01/13 01:50:45;;;;;;;0.68;0.68;;;7.20;91.20;;;;;;5009200;28;20108;-82
2021/01/13 01:53:17;;;;;;;;;;;7.20;91.20;;;;;;5012631;28;20112;-82
2021/01/13 01:55:49;;;;;;;0.20;0.20;;;7.30;89.40;;;;;;4995932;28;19912;-81
2021/01/13 01:58:28;;;;;;;0.63;0.45;;;7.10;90.60;;;;;;5011500;28;20041;-80
2021/01/13 02:00:55;;;;;;;0.50;0.30;;;7.10;91.50;;;;;;5013818;28;20030;-80
2021/01/13 02:03:22;;;;;;;;;;;7.10;91.60;;;;;;5015004;28;20034;-82
2021/01/13 02:05:51;;;;;;;0.45;0.45;;;7.30;92.30;;;;;;5027519;28;20003;-81
2021/01/13 02:08:21;;;;;;;1.00;0.50;;;;;;;;;;5010575;28;20022;-81
2021/01/13 02:10:48;;;;;;;0.50;0.43;;;7.40;90.00;;;;;;4998713;28;20124;-81
2021/01/13 02:13:15;;;;;;;0.80;0.65;;;;;;;;;;5001891;28;20073;-80
2021/01/13 02:15:41;;;;;;;0.20;0.20;;;;;;;;;;5000169;28;20034;-80
2021/01/13 02:18:09;;;;;;;0.60;0.50;;;7.50;88.20;;;;;;5014508;28;20026;-80
2021/01/13 02:20:39;;;;;;;0.50;0.50;;;7.70;86.10;;;;;;5025219;28;20030;-81
2021/01/13 02:23:10;;;;;;;0.50;0.30;;;7.30;89.70;;;;;;5029271;28;20445;-80
2021/01/13 02:26:32;;;;;;;0.68;0.50;;;7.30;91.20;;;;;;5013536;28;20030;-81
2021/01/13 02:29:10;;;;;;;3.20;0.30;;;7.30;99.90;;;;;;4996205;28;20026;-81
2021/01/13 02:31:41;;;;;;;0.43;0.35;;;7.30;99.90;;;;;;5009666;28;20029;-81
2021/01/13 02:34:19;;;;;;;0.30;0.30;;;7.30;99.90;;;;;;4997287;28;20038;-81
2021/01/13 02:37:03;;;;;;;0.47;0.45;;;7.40;99.90;;;;;;5003707;28;20049;-81
2021/01/13 02:39:33;;;;;;;0.30;0.30;;;7.10;91.80;;;;;;5013334;28;20022;-82
2021/01/13 02:42:00;;;;;;;0.43;0.43;;;7.30;99.90;;;;;;5013597;28;20030;-80
2021/01/13 02:44:30;;;;;;;0.50;0.50;;;7.30;99.90;;;;;;5013727;28;20050;-81
2021/01/13 02:46:56;;;;;;;0.40;0.40;;;;;;;;;;5001130;28;20257;-81
2021/01/13 02:49:30;;;;;;;1.10;0.47;;;7.30;99.90;;;;;;5006983;28;20025;-80
2021/01/13 02:51:57;;;;;;;1.15;0.88;;;7.40;91.20;;;;;;5002269;28;20485;-81
2021/01/13 02:54:34;;;;;;;0.70;0.70;;;7.40;94.70;;;;;;5012830;28;20026;-80
2021/01/13 02:57:26;;;;;;;1.17;0.73;;;7.50;89.30;;;;;;5000259;28;20030;-81
2021/01/13 02:59:56;;;;;;;3.90;2.20;;;7.40;99.90;;;;;;5007188;28;20569;-82
2021/01/13 03:02:37;;;;;;;5.15;2.05;;;7.50;90.70;;;;;;5004838;28;20033;-81
2021/01/13 03:05:06;;;;;;;4.97;1.55;;;;;;;;;;5012925;28;20029;-81
2021/01/13 03:07:37;;;;;;;2.47;0.93;;;7.60;99.90;;;;;;4997102;28;20026;-81
2021/01/13 03:10:16;;;;;;;0.32;0.32;;;7.50;99.90;;;;;;5012352;28;20485;-81
2021/01/13 03:12:42;;;;;;;0.40;0.40;;;7.40;91.50;;;;;;5016864;28;20018;-80
2021/01/13 03:15:09;;;;;;;0.38;0.38;;;7.30;91.20;;;;;;5015357;28;20036;-81
2021/01/13 03:17:35;;;;;;;0.50;0.50;;;;;;;;;;5013919;28;20069;-80
2021/01/13 03:20:10;;;;;;;0.47;0.47;;;7.70;99.90;;;;;;5012872;28;20339;-81
2021/01/13 03:23:12;;;;;;;0.30;0.30;;;7.70;99.90;;;;;;5002903;28;20030;-82
2021/01/13 03:25:59;;;;;;;1.10;0.50;;;7.60;99.60;;;;;;5028537;28;20045;-81
2021/01/13 03:28:28;;;;;;;5.72;0.50;;;7.50;90.70;;;;;;5012485;28;20109;-81
2021/01/13 03:30:54;;;;;;;0.20;0.20;;;7.40;90.90;;;;;;5010815;28;20053;-81
2021/01/13 03:33:26;;;;;;;0.20;0.20;;;;;;;;;;5009200;28;20542;-80
2021/01/13 03:36:02;;;;;;;0.43;0.32;;;7.50;98.90;;;;;;5009550;28;20033;-81
2021/01/13 03:38:29;;;;;;;0.20;0.20;;;7.50;90.90;;;;;;5006832;28;20065;-81
2021/01/13 03:41:07;;;;;;;0.38;0.38;;;7.40;99.10;;;;;;5006744;28;20502;-82
2021/01/13 03:43:40;;;;;;;0.30;0.30;;;7.60;94.00;;;;;;5003112;28;20042;-80
2021/01/13 03:46:08;;;;;;;0.20;0.20;;;7.70;87.80;;;;;;5013175;28;20046;-81
2021/01/13 03:48:56;;;;;;;0.20;0.20;;;7.60;91.90;;;;;;5000570;28;20046;-81
2021/01/13 03:51:49;;;;;;;0.20;0.20;;;8.00;97.80;;;;;;5007763;28;20057;-81
2021/01/13 03:54:18;;;;;;;0.20;0.20;;;7.80;99.90;;;;;;5004547;28;20504;-81
2021/01/13 03:56:52;;;;;;;0.20;0.20;;;7.70;98.50;;;;;;5011687;28;20047;-82
2021/01/13 03:59:29;;;;;;;0.30;0.30;;;7.80;87.40;;;;;;5004069;28;20054;-81
2021/01/13 04:01:59;;;;;;;0.20;0.20;;;7.70;87.80;;;;;;5008857;28;20141;-81
2021/01/13 04:04:49;;;;;;;0.20;0.20;;;7.50;99.90;;;;;;5005622;28;20069;-81
2021/01/13 04:07:15;;;;;;;0.30;0.30;;;7.40;99.90;;;;;;5026944;28;20073;-81
2021/01/13 04:09:42;;;;;;;0.20;0.20;;;7.50;99.90;;;;;;5004924;28;20026;-82
2021/01/13 04:12:12;;;;;;;0.52;0.40;;;7.50;99.90;;;;;;5006845;28;20088;-82
2021/01/13 04:14:50;;;;;;;0.35;0.35;;;7.50;91.90;;;;;;5004934;28;20401;-81
2021/01/13 04:17:17;;;;;;;0.40;0.30;;;7.50;99.90;;;;;;5012435;28;20026;-81
2021/01/13 04:19:44;;;;;;;0.43;0.43;;;7.50;93.30;;;;;;4998543;28;20023;-80
2021/01/13 04:22:15;;;;;;;2.63;0.50;;;7.40;92.80;;;;;;5005906;28;20121;-81
2021/01/13 04:24:46;;;;;;;0.52;0.32;;;7.40;91.90;;;;;;5016709;28;20080;-82
2021/01/13 04:27:17;;;;;;;0.25;0.22;;;7.60;91.40;;;;;;5001151;28;20054;-81
2021/01/13 04:29:43;;;;;;;0.22;0.22;;;;;;;;;;5033060;28;20048;-82
2021/01/13 04:32:11;;;;;;;0.47;0.30;;;7.60;91.30;;;;;;5009434;28;20030;-82
2021/01/13 04:34:37;;;;;;;;;;;7.60;91.30;;;;;;5012823;28;20026;-82
2021/01/13 04:37:06;;;;;;;0.20;0.20;;;7.40;92.70;;;;;;5019230;28;19905;-81
2021/01/13 04:39:34;;;;;;;0.28;0.28;;;7.60;91.70;;;;;;5006766;28;20394;-81
2021/01/13 04:42:03;;;;;;;0.45;0.45;;;7.60;92.90;;;;;;5025611;28;20287;-82
2021/01/13 04:45:01;;;;;;;0.20;0.20;;;7.60;91.00;;;;;;5000347;28;20057;-82
2021/01/13 04:47:47;;;;;;;0.45;0.35;;;7.20;99.90;;;;;;4992998;28;20100;-81
2021/01/13 04:50:17;;;;;;;0.20;0.20;;;7.50;93.20;;;;;;5008752;28;20033;-81
2021/01/13 04:52:44;;;;;;;0.65;0.30;;;8.00;99.90;;;;;;5012900;28;20022;-82
2021/01/13 04:55:25;;;;;;;1.00;0.30;;;7.50;96.80;;;;;;5003293;28;20022;-81
2021/01/13 04:58:03;;;;;;;2.58;0.40;;;7.70;93.50;;;;;;5011040;28;20117;-82
2021/01/13 05:00:51;;;;;;;;;;;7.80;91.30;;;;;;5007394;28;20387;-82
2021/01/13 05:03:41;;;;;;;1.25;0.65;;;7.60;99.90;;;;;;5004376;28;19964;-81
2021/01/13 05:06:37;;;;;;;1.83;0.55;;;7.70;91.60;;;;;;5026192;28;20050;-82
2021/01/13 05:09:06;;;;;;;0.90;0.52;;;8.10;91.50;;;;;;4996775;28;20023;-82
2021/01/13 05:12:04;;;;;;;0.43;0.43;;;7.90;99.90;;;;;;5006095;28;20057;-83
2021/01/13 05:14:41;;;;;;;0.60;0.60;;;7.20;99.90;;;;;;5014802;28;20810;-81
2021/01/13 05:17:20;;;;;;;0.57;0.35;;;7.60;92.50;;;;;;5000434;28;20034;-81
2021/01/13 05:19:55;;;;;;;0.30;0.30;;;;;;;;;;5005985;28;20405;-81
2021/01/13 05:22:25;;;;;;;0.30;0.30;;;7.70;91.80;;;;;;5016137;28;20026;-81
2021/01/13 05:24:53;;;;;;;0.52;0.50;;;;;;;;;;5010716;28;20030;-81
2021/01/13 05:27:33;;;;;;;1.20;0.57;;;7.90;88.80;;;;;;5015853;28;20025;-81
2021/01/13 05:30:00;;;;;;;0.30;0.30;;;7.80;90.70;;;;;;5015894;28;20022;-82
2021/01/13 05:32:33;;;;;;;0.52;0.50;;;7.70;91.70;;;;;;5013343;28;20847;-81
2021/01/13 05:35:03;;;;;;;0.80;0.52;;;7.70;92.90;;;;;;5014763;28;20521;-81
2021/01/13 05:37:31;;;;;;;1.27;0.90;;;;;;;;;;5013759;28;20030;-82
2021/01/13 05:39:58;;;;;;;0.52;0.50;;;;;;;;;;5031074;28;20022;-81
2021/01/13 05:42:23;;;;;;;0.63;0.40;;;7.90;99.90;;;;;;5012942;28;20034;-81
2021/01/13 05:44:50;;;;;;;0.63;0.38;;;7.90;99.90;;;;;;5015420;28;20038;-82
2021/01/13 05:47:57;;;;;;;0.50;0.32;;;8.00;99.90;;;;;;5006861;28;20391;-81
2021/01/13 05:50:24;;;;;;;0.20;0.20;;;8.10;99.90;;;;;;5010313;28;20027;-81
2021/01/13 05:52:52;;;;;;;3.53;0.55;;;7.80;91.50;;;;;;5013748;28;20033;-81
2021/01/13 05:55:18;;;;;;;;;;;7.80;91.30;;;;;;5002567;28;20036;-81
2021/01/13 05:58:02;;;;;;;0.40;0.40;;;7.80;90.90;;;;;;5014463;28;19941;-83
2021/01/13 06:00:30;;;;;;;0.30;0.30;;;7.80;90.80;;;;;;5026596;28;20061;-81
2021/01/13 06:03:00;;;;;;;0.75;0.75;;;7.70;91.40;;;;;;5015021;28;20025;-83
2021/01/13 06:05:31;;;;;;;0.52;0.40;;;7.70;91.80;;;;;;5015219;28;20030;-82
2021/01/13 06:07:59;;;;;;;1.52;0.80;;;7.90;91.00;;;;;;5005319;28;20134;-82
2021/01/13 06:10:36;;;;;;;1.52;0.50;;;8.00;90.20;;;;;;5009381;28;20060;-81
2021/01/13 06:13:04;;;;;;;1.15;0.52;;;7.90;90.40;;;;;;5003153;28;20037;-81
2021/01/13 06:15:31;;;;;;;0.45;0.45;;;;;;;;;;5009844;28;20081;-81
2021/01/13 06:17:58;;;;;;;0.30;0.30;;;7.80;90.70;;;;;;5015161;28;20500;-81
2021/01/13 06:20:26;;;;;;;0.40;0.40;;;7.90;91.90;;;;;;5011668;28;20026;-83
2021/01/13 06:22:52;;;;;;;;;;;7.90;91.90;;;;;;5010996;28;20514;-82
2021/01/13 06:25:31;;;;;;;3.40;0.40;;;8.00;89.30;;;;;;5002764;28;19910;-81
2021/01/13 06:28:27;;;;;;;0.30;0.30;;;7.80;99.90;;;;;;4995521;28;20019;-81
2021/01/13 06:31:01;;;;;;;0.30;0.30;;;8.10;91.90;;;;;;5009787;28;20482;-82
2021/01/13 06:33:52;;;;;;;0.57;0.40;;;8.10;99.90;;;;;;5017525;28;20029;-80
2021/01/13 06:36:42;;;;;;;0.73;0.73;;;7.90;91.60;;;;;;5009959;28;20037;-81
2021/01/13 06:39:09;;;;;;;0.63;0.55;;;7.80;99.90;;;;;;5012453;28;20064;-82
2021/01/13 06:41:49;;;;;;;3.10;1.00;;;7.80;99.80;;;;;;5013422;28;20034;-81
2021/01/13 06:44:18;;;;;;;1.63;1.20;;;8.30;99.60;;;;;;5012034;28;20540;-81
2021/01/13 06:46:44;;;;;;;0.75;0.73;;;7.90;99.90;;;;;;5001304;28;20018;-80
2021/01/13 06:49:21;;;;;;;0.60;0.50;;;8.00;90.90;;;;;;5013342;28;20113;-82
2021/01/13 06:51:51;;;;;;;0.60;0.52;;;8.00;90.50;;;;;;5014698;28;20026;-80
2021/01/13 06:54:21;;;;;;;1.83;0.75;;;8.00;90.50;;;;;;5019778;28;20054;-83
2021/01/13 06:56:47;;;;;;;3.60;1.45;;;;;;;;;;5010054;28;20022;-82
2021/01/13 06:59:14;;;;;;;0.57;0.57;;;8.10;90.40;;;;;;5002973;28;20029;-82
2021/01/13 07:01:50;;;;;;;1.85;0.90;;;8.10;90.70;;;;;;5010499;28;20100;-82
2021/01/13 07:04:16;;;;;;;0.80;0.60;;;;;;;;;;4994557;28;20033;-83
2021/01/13 07:06:58;;;;;;;0.40;0.40;;;8.20;97.80;;;;;;4992840;28;20034;-81
2021/01/13 07:09:34;;;;;;;1.13;0.65;;;8.00;99.80;;;;;;5029073;28;20023;-83
2021/01/13 07:12:11;;;;;;;0.57;0.57;;;8.00;90.90;;;;;;4996414;28;20062;-82
2021/01/13 07:14:39;;;;;;;1.33;0.47;;;8.20;99.90;;;;;;5002118;28;20041;-82
2021/01/13 07:17:07;;;;;;;0.40;0.40;;;8.20;99.90;;;;;;5009668;28;20100;-82
2021/01/13 07:19:35;;;;;;;0.63;0.60;;;8.00;91.20;;;;;;5028926;28;20077;-82
2021/01/13 07:22:01;;;;;;;;;;;7.90;91.30;;;;;;4994701;28;20069;-82
2021/01/13 07:24:28;;;;;;;0.98;0.55;;;8.00;90.90;;;;;;5011169;28;20414;-86
2021/01/13 07:26:55;;;;;;;;;;;8.10;91.00;;;;;;5012613;28;20022;-81
2021/01/13 07:29:21;;;;;;;0.63;0.45;;;;;;;;;;5020485;28;19916;-86
2021/01/13 07:31:48;;;;;;;0.55;0.55;;;;;;;;;;5022473;28;20113;-86
2021/01/13 07:34:32;;;;;;;1.20;0.65;;;7.90;91.00;;;;;;5012975;28;20060;-84
2021/01/13 07:37:07;;;;;;;0.70;0.70;;;7.90;99.90;;;;;;5002176;28;20057;-84
2021/01/13 07:39:45;;;;;;;2.03;0.98;;;;;;;;;;5010896;28;20498;-83
2021/01/13 07:42:26;;;;;;;5.07;1.67;;;7.90;99.90;;;;;;4994723;28;20467;-84
2021/01/13 07:45:04;;;;;;;6.03;3.25;;;7.80;93.20;;;;;;4999805;28;20037;-84
2021/01/13 07:47:48;;;;;;;3.92;2.22;;;7.80;91.80;;;;;;5002065;28;20556;-81
2021/01/13 07:50:15;;;;;;;4.25;1.33;;;;;;;;;;4993433;28;20529;-83
2021/01/13 07:52:48;;;;;;;2.80;1.48;;;7.80;92.60;;;;;;5025111;28;20495;-84
2021/01/13 07:55:18;;;;;;;3.78;1.45;;;7.70;99.90;;;;;;4996919;28;20029;-82
2021/01/13 07:57:55;;;;;;;2.00;1.60;;;7.80;92.20;;;;;;5012328;28;20113;-84
2021/01/13 08:00:36;;;;;;;4.10;1.88;;;7.90;92.20;;;;;;5011886;28;20030;-81
2021/01/13 08:03:39;;;;;;;4.65;1.73;;;7.80;91.80;;;;;;5012906;28;20573;-82
2021/01/13 08:06:29;;;;;;;3.63;2.00;;;8.00;99.90;;;;;;5001200;28;20042;-82
2021/01/13 08:09:20;;;;;;;1.70;1.50;;;7.90;91.50;;;;;;5010860;28;20025;-83
2021/01/13 08:12:10;;;;;;;4.78;2.20;;;8.00;93.50;;;;;;5008229;28;20030;-82
2021/01/13 08:14:59;;;;;;;7.40;1.85;;;8.10;99.90;;;;;;5022743;28;20494;-83
2021/01/13 08:17:54;;;;;;;5.28;2.08;;;7.50;99.90;;;;;;5010025;28;20112;-83
2021/01/13 08:20:50;;;;;;;5.40;1.80;;;8.00;99.90;;;;;;5011517;28;20467;-81
2021/01/13 08:23:26;;;;;;;7.63;3.10;;;7.80;99.90;;;;;;5003491;28;20037;-81
2021/01/13 08:25:55;;;;;;;4.78;2.35;;;8.00;91.30;;;;;;5009127;28;20067;-85
2021/01/13 08:28:22;;;;;;;5.43;2.78;;;8.00;90.90;;;;;;4999417;28;20025;-86
2021/01/13 08:30:49;;;;;;;6.57;3.47;;;8.00;91.20;;;;;;5022665;28;20097;-84
2021/01/13 08:33:23;;;;;;;4.35;2.13;;;8.00;90.90;;;;;;5012503;28;20030;-82
2021/01/13 08:35:57;;;;;;;7.82;3.58;;;8.10;91.00;;;;;;4999054;28;20019;-83
2021/01/13 08:38:23;;;;;;;5.07;3.03;;;;;;;;;;5022272;28;20023;-83
2021/01/13 08:40:50;;;;;;;6.35;3.50;;;8.20;90.10;;;;;;5029068;28;20550;-88
2021/01/13 08:43:18;;;;;;;4.72;2.53;;;8.20;90.00;;;;;;5011492;28;20046;-81
2021/01/13 08:45:49;;;;;;;9.27;3.25;;;8.20;89.50;;;;;;5025292;28;20058;-85
2021/01/13 08:48:21;;;;;;;5.55;2.90;;;8.20;89.60;;;;;;5008396;28;20086;-81
2021/01/13 08:51:10;;;;;;;7.55;2.83;;;8.20;90.40;;;;;;5013001;28;20018;-83
2021/01/13 08:53:36;;;;;;;5.22;2.83;;;;;;;;;;5001201;28;20092;-84
2021/01/13 08:56:02;;;;;;;6.72;3.15;;;;;;;;;;5013100;28;20458;-81
2021/01/13 08:58:32;;;;;;;4.95;2.45;;;8.20;88.70;;;;;;4998951;28;20030;-82
2021/01/13 09:01:09;;;;;;;4.38;2.13;;;8.20;99.70;;;;;;5011493;28;20053;-81
2021/01/13 09:03:40;;;;;;;3.78;2.53;;;8.30;89.80;;;;;;5027834;28;20461;-83
2021/01/13 09:06:25;;;;;;;5.72;2.58;;;8.20;99.90;;;;;;5011508;28;20026;-81
2021/01/13 09:08:58;;;;;;;4.72;2.95;;;8.10;99.90;;;;;;5010931;28;20481;-82
2021/01/13 09:11:37;;;;;;;3.25;2.20;;;8.30;89.50;;;;;;5011149;28;20018;-84
2021/01/13 09:14:23;;;;;;;3.10;1.98;;;8.40;99.70;;;;;;5024771;28;20049;-82
2021/01/13 09:16:56;;;;;;;2.53;1.42;;;8.30;99.60;;;;;;5006110;28;20026;-86
2021/01/13 09:19:38;;;;;;;2.95;1.50;;;8.30;90.40;;;;;;5016902;28;20037;-83
2021/01/13 09:22:09;;;;;;;3.72;1.55;;;8.40;90.30;;;;;;5005278;28;20030;-86
2021/01/13 09:24:42;;;;;;;2.03;1.17;;;8.50;99.80;;;;;;4998790;28;20053;-81
2021/01/13 09:27:12;;;;;;;8.88;2.40;;;8.40;99.90;;;;;;5005334;28;20026;-84
2021/01/13 09:29:54;;;;;;;4.45;3.05;;;8.30;99.90;;;;;;5001078;28;20026;-83
2021/01/13 09:32:23;;;;;;;3.53;2.30;;;8.30;90.90;;;;;;4998283;28;20406;-83
2021/01/13 09:34:50;;;;;;;6.07;3.20;;;7.60;91.30;;;;;;4998394;28;20117;-83
2021/01/13 09:37:17;;;;;;;5.22;2.40;;;8.20;91.10;;;;;;5000887;28;20033;-84
2021/01/13 09:40:04;;;;;;;6.68;3.83;;;8.20;99.90;;;;;;5009075;28;20041;-84
2021/01/13 09:42:41;;;;;;;6.35;3.53;;;8.10;99.90;;;;;;5000981;28;20109;-81
2021/01/13 09:45:08;;;;;;;5.80;2.30;;;8.30;99.90;;;;;;5030350;28;20117;-80
2021/01/13 09:47:35;;;;;;;4.72;2.85;;;;;;;;;;5014858;28;20080;-86
2021/01/13 09:50:01;;;;;;;4.85;2.25;;;;;;;;;;5014923;28;20490;-84
2021/01/13 09:52:42;;;;;;;5.65;3.17;;;8.20;92.70;;;;;;5015082;28;20109;-84
2021/01/13 09:55:09;;;;;;;8.10;2.83;;;;;;;;;;5014934;28;20053;-85
2021/01/13 09:57:36;;;;;;;14.47;3.67;;;8.20;92.50;;;;;;5015054;28;20026;-88
2021/01/13 10:00:05;;;;;;;11.70;3.80;;;;;;;;;;5014850;28;20037;-81
2021/01/13 10:02:31;;;;;;;10.95;5.38;;;;;;;;;;4996453;28;20094;-86
2021/01/13 10:04:57;;;;;;;10.23;4.90;;;8.30;99.90;;;;;;5041000;28;20030;-88
2021/01/13 10:07:29;;;;;;;13.13;4.53;;;8.30;92.20;;;;;;5004448;28;20053;-84
2021/01/13 10:09:55;;;;;;;8.25;4.95;;;;;;;;;;5006952;28;20030;-84
2021/01/13 10:12:22;;;;;;;8.50;3.75;;;;;;;;;;5006371;28;20033;-86
2021/01/13 10:14:52;;;;;;;5.78;3.65;;;8.30;92.30;;;;;;5000339;28;20399;-81
2021/01/13 10:17:27;;;;;;;9.38;4.55;;;8.40;92.20;;;;;;5007167;28;20025;-81
2021/01/13 10:19:54;;;;;;;6.72;3.47;;;8.50;91.50;;;;;;5013430;28;20022;-81
2021/01/13 10:22:29;;;;;;;6.88;3.35;;;8.20;91.80;;;;;;5024745;28;20382;-82
2021/01/13 10:24:55;;;;;;;7.13;3.88;;;;;;;;;;5013513;28;20520;-81
2021/01/13 10:27:22;;;;;;;7.97;3.92;;;8.50;92.10;;;;;;5025329;28;20030;-81
2021/01/13 10:29:49;;;;;;;5.88;2.97;;;8.50;92.50;;;;;;5006098;28;20133;-86
2021/01/13 10:32:15;;;;;;;5.63;3.20;;;;;;;;;;5013725;28;20029;-80
2021/01/13 10:34:50;;;;;;;5.10;2.58;;;8.50;92.60;;;;;;5009154;28;20409;-80
2021/01/13 10:37:16;;;;;;;9.40;3.15;;;;;;;;;;5013910;28;20083;-80
2021/01/13 10:39:42;;;;;;;5.60;2.63;;;;;;;;;;5008989;28;20029;-80
2021/01/13 10:42:09;;;;;;;5.03;2.83;;;;;;;;;;5002149;28;20058;-80
2021/01/13 10:44:35;;;;;;;5.22;3.10;;;8.70;99.90;;;;;;4994824;28;20046;-80
2021/01/13 10:47:01;;;;;;;6.95;3.65;;;;;;;;;;5035889;28;20018;-86
2021/01/13 10:49:41;;;;;;;5.13;2.95;;;8.60;91.90;;;;;;5007298;28;20029;-82
2021/01/13 10:52:13;;;;;;;14.00;6.65;;;8.50;93.30;;;;;;5016396;28;20560;-84
2021/01/13 10:54:41;;;;;;;14.65;7.25;;;8.50;92.70;;;;;;5002159;28;20383;-81
2021/01/13 10:57:09;;;;;;;9.40;5.78;;;8.60;92.20;;;;;;4994372;28;20014;-81
2021/01/13 10:59:36;;;;;;;10.32;4.28;;;8.50;99.90;;;;;;5037669;28;20038;-81
2021/01/13 11:02:07;;;;;;;15.93;4.57;;;8.50;93.60;;;;;;5000838;28;20512;-81
2021/01/13 11:04:35;;;;;;;9.57;4.15;;;8.60;92.20;;;;;;5004039;28;20034;-81
2021/01/13 11:07:09;;;;;;;10.10;3.33;;;8.60;93.00;;;;;;5042520;28;20531;-81
2021/01/13 11:09:44;;;;;;;6.43;2.20;;;8.60;93.50;;;;;;5012900;28;20486;-81
2021/01/13 11:12:18;;;;;;;4.07;2.00;;;8.60;94.30;;;;;;5010867;28;20034;-81
2021/01/13 11:14:47;;;;;;;6.13;1.63;;;8.70;92.80;;;;;;4994598;28;20372;-81
2021/01/13 11:17:24;;;;;;;4.05;2.45;;;8.70;93.80;;;;;;5009129;28;20032;-81
2021/01/13 11:19:53;;;;;;;2.15;1.23;;;8.40;99.90;;;;;;5012654;28;20117;-81
2021/01/13 11:22:20;;;;;;;1.48;0.75;;;8.80;91.30;;;;;;5014008;28;20022;-81
2021/01/13 11:24:47;;;;;;;;;;;8.90;91.30;;;;;;5013448;28;20034;-81
2021/01/13 11:27:18;;;;;;;0.85;0.70;;;8.70;93.00;;;;;;5016360;28;19912;-81
2021/01/13 11:29:47;;;;;;;2.95;1.08;;;8.70;93.20;;;;;;5000812;28;20026;-81
2021/01/13 11:32:15;;;;;;;1.40;1.15;;;8.80;93.30;;;;;;5012507;28;20112;-81
2021/01/13 11:34:47;;;;;;;2.90;1.58;;;8.80;93.40;;;;;;5029198;28;20117;-81
2021/01/13 11:37:51;;;;;;;1.30;0.63;;;8.70;99.80;;;;;;5012616;28;20504;-81
2021/01/13 11:40:24;;;;;;;6.00;0.93;;;8.80;99.90;;;;;;4994146;28;20031;-81
2021/01/13 11:43:17;;;;;;;1.45;0.85;;;8.80;99.90;;;;;;5009780;28;20045;-80
2021/01/13 11:46:02;;;;;;;2.67;0.77;;;8.80;93.20;;;;;;5028847;28;20040;-81
2021/01/13 11:48:37;;;;;;;1.67;0.98;;;8.90;99.90;;;;;;5010393;28;20029;-84
2021/01/13 11:51:10;;;;;;;0.93;0.88;;;8.80;93.20;;;;;;5012845;28;20037;-86
2021/01/13 11:53:37;;;;;;;3.30;0.90;;;9.00;94.90;;;;;;5012632;28;20026;-87
2021/01/13 11:56:04;;;;;;;1.70;1.10;;;8.90;91.80;;;;;;5012646;28;20112;-84
2021/01/13 11:58:32;;;;;;;0.82;0.60;;;;;;;;;;5006618;28;20087;-85
2021/01/13 12:00:58;;;;;;;0.95;0.80;;;;;;;;;;5007480;28;20026;-81
2021/01/13 12:03:25;;;;;;;3.22;0.60;;;;;;;;;;5027184;28;20042;-81
2021/01/13 12:05:52;;;;;;;1.10;0.65;;;;;;;;;;4994171;28;20018;-86
2021/01/13 12:08:20;;;;;;;1.45;0.63;;;;;;;;;;5025987;28;20489;-85
2021/01/13 12:10:51;;;;;;;0.98;0.73;;;;;;;;;;5012587;28;20014;-85
2021/01/13 12:13:29;;;;;;;1.25;0.75;;;9.00;91.90;;;;;;5002072;28;20729;-80
2021/01/13 12:16:00;;;;;;;1.63;1.10;;;9.00;92.30;;;;;;5011234;28;20057;-81
2021/01/13 12:18:27;;;;;;;1.65;1.55;;;9.00;91.30;;;;;;5000225;28;20453;-81
2021/01/13 12:21:01;;;;;;;1.52;1.00;;;9.00;99.90;;;;;;5008890;28;20022;-87
2021/01/13 12:23:32;;;;;;;0.82;0.57;;;9.00;92.70;;;;;;5003299;28;20145;-87
2021/01/13 12:26:14;;;;;;;2.38;1.23;;;;;;;;;;5005062;28;20029;-86
2021/01/13 12:28:46;;;;;;;3.25;1.70;;;9.10;91.50;;;;;;5026994;28;20033;-82
2021/01/13 12:31:14;;;;;;;0.75;0.65;;;9.00;99.90;;;;;;4994021;28;20367;-81
2021/01/13 12:33:55;;;;;;;0.95;0.65;;;9.10;91.10;;;;;;5005521;28;20041;-81
2021/01/13 12:36:26;;;;;;;1.17;0.32;;;9.10;92.10;;;;;;4996139;28;20129;-82
2021/01/13 12:38:53;;;;;;;1.38;0.88;;;9.20;92.00;;;;;;5005667;28;20107;-81
2021/01/13 12:41:25;;;;;;;1.83;1.30;;;9.10;91.40;;;;;;5009505;28;20026;-80
2021/01/13 12:43:53;;;;;;;0.70;0.70;;;9.10;93.00;;;;;;5011160;28;20108;-82
2021/01/13 12:46:25;;;;;;;;;;;9.10;92.70;;;;;;5008369;28;20018;-84
2021/01/13 12:48:51;;;;;;;0.60;0.60;;;;;;;;;;5028611;28;19905;-82
2021/01/13 12:51:17;;;;;;;1.52;0.80;;;;;;;;;;5021056;28;20022;-81
2021/01/13 12:53:43;;;;;;;3.75;1.88;;;;;;;;;;4993848;28;20105;-84
2021/01/13 12:56:32;;;;;;;1.77;1.23;;;9.20;99.90;;;;;;4993724;28;20026;-83
2021/01/13 12:59:00;;;;;;;7.13;1.35;;;9.10;91.20;;;;;;5000044;28;20041;-84
2021/01/13 13:01:26;;;;;;;;;;;9.10;91.20;;;;;;5016095;28;20523;-82
2021/01/13 13:03:53;;;;;;;2.78;1.50;;;9.00;92.00;;;;;;5009975;28;19909;-80
2021/01/13 13:06:26;;;;;;;1.07;0.80;;;;;;;;;;5002132;28;20019;-83
2021/01/13 13:08:52;;;;;;;1.38;0.77;;;;;;;;;;5042110;28;20018;-82
2021/01/13 13:11:18;;;;;;;2.13;0.57;;;;;;;;;;5012132;28;20024;-82
2021/01/13 13:13:44;;;;;;;1.48;0.90;;;;;;;;;;5011171;28;20026;-81
2021/01/13 13:16:11;;;;;;;1.02;0.77;;;;;;;;;;5011413;28;20160;-82
2021/01/13 13:18:40;;;;;;;3.63;1.38;;;9.10;92.60;;;;;;5022476;28;20034;-80
2021/01/13 13:21:10;;;;;;;3.15;1.88;;;;;;;;;;5012943;28;20029;-81
2021/01/13 13:23:36;;;;;;;2.30;1.77;;;9.00;92.50;;;;;;5009251;28;20061;-81
2021/01/13 13:26:03;;;;;;;2.50;1.13;;;9.00;93.20;;;;;;5013785;28;20018;-82
2021/01/13 13:28:29;;;;;;;5.18;3.40;;;;;;;;;;5015817;28;20029;-81
2021/01/13 13:30:55;;;;;;;10.23;3.35;;;;;;;;;;5015963;28;20030;-84
2021/01/13 13:33:21;;;;;;;3.55;2.30;;;;;;;;;;5026510;28;20026;-84
2021/01/13 13:35:47;;;;;;;4.28;2.05;;;;;;;;;;5013824;28;20056;-81
2021/01/13 13:38:13;;;;;;;4.90;2.25;;;;;;;;;;5014951;28;20091;-81
2021/01/13 13:40:39;;;;;;;2.75;1.23;;;;;;;;;;5014199;28;20029;-81
2021/01/13 13:43:05;;;;;;;1.75;1.35;;;9.10;99.90;;;;;;5044993;28;20517;-82
2021/01/13 13:45:31;;;;;;;2.17;1.33;;;;;;;;;;5022615;28;20061;-81
2021/01/13 13:47:57;;;;;;;1.13;0.90;;;;;;;;;;5015568;28;20556;-82
2021/01/13 13:50:23;;;;;;;1.25;1.10;;;;;;;;;;5001750;28;20478;-82
2021/01/13 13:52:49;;;;;;;1.33;1.23;;;;;;;;;;5014299;28;20033;-81